Terminal Aerodrome Forecast
Issued by NWS Greer, SC

Home | Current Version | Previous Version | Text Only | Print | Product List | Glossary On
Versions: 1 2 3 4 5 6 7 8 9 10 11 12 13 14 15 16 17 18 19 20 21 22 23 24 25 26 27 28 29 30 31 32 33 34 35 36 37 38 39 40 41 42 43 44 45 46 47
000
FTUS42 KGSP 241130
TAFAVL
TAF
KAVL 241130Z 2412/2512 VRB05KT 6SM -SHRA BR SCT007 OVC015
      TEMPO 2412/2416 3SM -SHRA BR OVC006
     FM241600 16006KT 6SM -SHRA BR OVC012
     FM242100 34005KT 4SM -SHRA BR OVC010
     FM250000 VRB04KT 3SM BR VCSH OVC008=

USA.gov is the U.S. government's official web portal to all federal, state and local government web resources and services.